Time;durP1;ratioP1;P1;durP2;ratioP2;P2;SDS_P1;SDS_P2;PMS_P1;PMS_P2;Temp;Humidity;BMP_temperature;BMP_pressure;BME280_temperature;BME280_humidity;BME280_pressure;Samples;Min_cycle;Max_cycle;Signal;HPM_P1;HPM_P2
2021/09/02 00:02:12;;;;;;;28.95;14.57;;;8.90;99.90;;;;;;5081650;28;20047;-72
2021/09/02 00:04:39;;;;;;;28.38;15.80;;;9.00;99.90;;;;;;5082430;28;20125;-72
2021/09/02 00:07:06;;;;;;;33.15;14.82;;;8.90;99.90;;;;;;5081497;28;20052;-73
2021/09/02 00:09:33;;;;;;;26.95;15.45;;;8.90;99.90;;;;;;5082401;28;20056;-73
2021/09/02 00:12:01;;;;;;;30.48;16.80;;;8.90;99.90;;;;;;5081699;28;20054;-73
2021/09/02 00:14:28;;;;;;;32.17;16.08;;;9.00;99.90;;;;;;5082632;28;20063;-73
2021/09/02 00:16:55;;;;;;;38.53;18.35;;;9.20;99.90;;;;;;5080541;28;20104;-72
2021/09/02 00:19:22;;;;;;;33.47;16.92;;;9.20;99.90;;;;;;5064601;28;20334;-72
2021/09/02 00:21:49;;;;;;;34.08;16.98;;;9.00;99.90;;;;;;5081211;28;20044;-73
2021/09/02 00:24:16;;;;;;;30.83;16.08;;;8.90;99.90;;;;;;5079660;28;20296;-72
2021/09/02 00:26:43;;;;;;;31.52;16.17;;;8.90;99.90;;;;;;5081894;28;20108;-72
2021/09/02 00:29:10;;;;;;;36.40;16.35;;;8.90;99.90;;;;;;5081781;28;20051;-72
2021/09/02 00:31:37;;;;;;;35.28;16.10;;;9.00;99.90;;;;;;5061145;28;20052;-72
2021/09/02 00:34:04;;;;;;;32.35;14.88;;;8.90;99.90;;;;;;5077335;28;20290;-72
2021/09/02 00:36:31;;;;;;;26.23;13.55;;;8.70;99.90;;;;;;5064048;28;20225;-72
2021/09/02 00:38:57;;;;;;;26.48;13.48;;;8.70;99.90;;;;;;5082275;28;20104;-72
2021/09/02 00:41:24;;;;;;;24.20;12.55;;;8.70;99.90;;;;;;5064162;28;20056;-72
2021/09/02 00:43:51;;;;;;;22.17;13.48;;;8.60;99.90;;;;;;5081342;28;20056;-72
2021/09/02 00:46:18;;;;;;;27.27;13.55;;;8.60;99.90;;;;;;5081566;28;20051;-72
2021/09/02 00:48:47;;;;;;;25.40;12.43;;;8.50;99.90;;;;;;5080937;28;20059;-72
2021/09/02 00:51:16;;;;;;;29.27;13.63;;;8.50;99.90;;;;;;5080790;28;20389;-72
2021/09/02 00:53:45;;;;;;;26.73;14.40;;;8.40;99.90;;;;;;5081599;28;20467;-72
2021/09/02 00:56:13;;;;;;;24.13;13.32;;;8.50;99.90;;;;;;5082807;28;20054;-72
2021/09/02 00:58:41;;;;;;;29.20;14.88;;;8.40;99.90;;;;;;5082666;28;20571;-72
2021/09/02 01:01:09;;;;;;;30.20;15.50;;;8.40;99.90;;;;;;5081120;28;20060;-72
2021/09/02 01:03:36;;;;;;;33.20;14.68;;;8.40;99.90;;;;;;5080467;28;20204;-72
2021/09/02 01:06:04;;;;;;;31.48;15.57;;;8.60;99.90;;;;;;5080642;28;20052;-73
2021/09/02 01:08:31;;;;;;;31.80;16.48;;;8.70;99.90;;;;;;5064124;28;20533;-72
2021/09/02 01:10:58;;;;;;;30.58;15.02;;;8.60;99.90;;;;;;5083058;28;20051;-72
2021/09/02 01:13:25;;;;;;;31.17;15.25;;;8.50;99.90;;;;;;5064612;28;20147;-72
2021/09/02 01:15:56;;;;;;;32.92;15.73;;;8.40;99.90;;;;;;5064852;28;20067;-72
2021/09/02 01:18:23;;;;;;;28.02;15.43;;;8.40;99.90;;;;;;5082558;28;20059;-72
2021/09/02 01:20:49;;;;;;;33.47;15.95;;;8.40;99.90;;;;;;5081508;28;20133;-72
2021/09/02 01:23:21;;;;;;;28.50;14.93;;;8.40;99.90;;;;;;5080910;28;20431;-72
2021/09/02 01:25:48;;;;;;;30.02;14.85;;;8.30;99.90;;;;;;5081116;28;20480;-72
2021/09/02 01:28:16;;;;;;;44.75;17.27;;;8.40;99.90;;;;;;5081484;28;20056;-72
2021/09/02 01:30:43;;;;;;;40.33;17.23;;;8.50;99.90;;;;;;5080932;28;20482;-73
2021/09/02 01:33:15;;;;;;;48.10;19.27;;;8.70;99.90;;;;;;5064112;28;20047;-72
2021/09/02 01:35:43;;;;;;;50.92;20.58;;;8.80;99.90;;;;;;5066496;28;20407;-72
2021/09/02 01:38:10;;;;;;;48.95;19.13;;;8.80;99.90;;;;;;5067856;28;20083;-73
2021/09/02 01:40:42;;;;;;;39.17;17.58;;;8.80;99.90;;;;;;5083831;28;20044;-72
2021/09/02 01:43:12;;;;;;;36.40;15.55;;;8.80;99.90;;;;;;5084834;28;20067;-72
2021/09/02 01:45:39;;;;;;;26.58;13.57;;;8.50;99.90;;;;;;5086182;28;20073;-72
2021/09/02 01:48:07;;;;;;;24.75;12.13;;;8.40;99.90;;;;;;5084276;28;20036;-72
2021/09/02 01:50:37;;;;;;;30.15;13.07;;;8.20;99.90;;;;;;5082089;28;20056;-72
2021/09/02 01:53:14;;;;;;;25.83;13.50;;;8.10;99.90;;;;;;5086078;28;20503;-72
2021/09/02 01:55:46;;;;;;;30.52;14.65;;;8.10;99.90;;;;;;5066706;28;20119;-72
2021/09/02 01:58:14;;;;;;;28.58;14.20;;;8.10;99.90;;;;;;5072178;23;20041;-75
2021/09/02 02:00:41;;;;;;;30.17;15.55;;;8.10;99.90;;;;;;5064438;28;20301;-75
2021/09/02 02:03:08;;;;;;;32.65;15.43;;;8.00;99.90;;;;;;5062868;28;20036;-75
2021/09/02 02:05:35;;;;;;;25.38;14.57;;;8.00;99.90;;;;;;5046947;28;20335;-75
2021/09/02 02:08:02;;;;;;;41.63;17.02;;;8.00;99.90;;;;;;5065774;28;20544;-75
2021/09/02 02:10:31;;;;;;;45.50;19.17;;;8.10;99.90;;;;;;5063607;28;20189;-75
2021/09/02 02:13:02;;;;;;;46.47;18.13;;;8.10;99.90;;;;;;5064377;28;20078;-75
2021/09/02 02:15:29;;;;;;;42.75;17.83;;;8.00;99.90;;;;;;5065994;28;20056;-75
2021/09/02 02:17:56;;;;;;;44.08;18.95;;;8.00;99.90;;;;;;5045684;28;20105;-75
2021/09/02 02:20:23;;;;;;;35.85;17.27;;;8.00;99.90;;;;;;5056747;28;20227;-75
2021/09/02 02:22:50;;;;;;;54.58;22.30;;;8.00;99.90;;;;;;5057435;28;20417;-75
2021/09/02 02:25:17;;;;;;;57.90;19.58;;;8.00;99.90;;;;;;5062489;28;20080;-76
2021/09/02 02:27:44;;;;;;;42.53;18.75;;;8.00;99.90;;;;;;5064786;28;20052;-75
2021/09/02 02:30:15;;;;;;;44.75;18.75;;;8.00;99.90;;;;;;5066101;28;20056;-75
2021/09/02 02:32:42;;;;;;;46.58;19.08;;;7.90;99.90;;;;;;5065927;28;20040;-75
2021/09/02 02:35:10;;;;;;;55.95;21.10;;;8.20;99.90;;;;;;5063517;28;20508;-75
2021/09/02 02:37:37;;;;;;;48.55;19.65;;;8.10;99.90;;;;;;5062568;28;20400;-75
2021/09/02 02:40:06;;;;;;;50.75;19.77;;;8.00;99.90;;;;;;5065695;28;20052;-75
2021/09/02 02:42:33;;;;;;;60.33;22.95;;;8.00;99.90;;;;;;5064754;28;20056;-75
2021/09/02 02:44:59;;;;;;;49.78;20.45;;;8.00;99.90;;;;;;5064993;28;20048;-75
2021/09/02 02:47:26;;;;;;;64.32;21.48;;;8.20;99.90;;;;;;5062639;28;20393;-75
2021/09/02 02:49:53;;;;;;;55.50;21.55;;;8.10;99.90;;;;;;5036411;28;20098;-75
2021/09/02 02:52:20;;;;;;;44.92;18.80;;;8.30;99.90;;;;;;5044863;28;20483;-75
2021/09/02 02:54:47;;;;;;;126.38;29.25;;;8.20;99.90;;;;;;5059570;28;20057;-75
2021/09/02 02:57:14;;;;;;;61.25;21.67;;;8.20;99.90;;;;;;5063506;28;20139;-75
2021/09/02 02:59:40;;;;;;;86.82;24.13;;;8.20;99.90;;;;;;5067629;28;20052;-75
2021/09/02 03:02:07;;;;;;;83.68;25.13;;;8.10;99.90;;;;;;5045829;28;20107;-75
2021/09/02 03:04:34;;;;;;;97.35;27.13;;;8.30;99.90;;;;;;5047620;28;20060;-75
2021/09/02 03:07:01;;;;;;;59.75;21.27;;;8.20;99.90;;;;;;5064159;28;20458;-75
2021/09/02 03:09:28;;;;;;;54.00;18.33;;;8.10;99.90;;;;;;5064334;28;20078;-76
2021/09/02 03:11:54;;;;;;;124.40;26.58;;;8.10;99.90;;;;;;5064760;28;20121;-75
2021/09/02 03:14:21;;;;;;;178.27;32.05;;;8.30;99.90;;;;;;5031015;28;20045;-75
2021/09/02 03:16:48;;;;;;;101.20;25.83;;;8.20;99.90;;;;;;5063073;28;20057;-75
2021/09/02 03:19:15;;;;;;;137.18;28.75;;;8.10;99.90;;;;;;5055776;28;20106;-75
2021/09/02 03:21:42;;;;;;;119.70;25.60;;;8.30;99.90;;;;;;5047125;28;20044;-75
2021/09/02 03:24:08;;;;;;;132.63;26.33;;;8.40;99.90;;;;;;5045028;28;20076;-75
2021/09/02 03:26:35;;;;;;;153.40;29.67;;;8.30;99.90;;;;;;5063965;28;20110;-76
2021/09/02 03:29:02;;;;;;;142.60;28.02;;;8.30;99.90;;;;;;5064832;28;20613;-75
2021/09/02 03:31:29;;;;;;;141.38;30.10;;;8.20;99.90;;;;;;5046878;28;20056;-75
2021/09/02 03:33:55;;;;;;;125.65;28.50;;;8.20;99.90;;;;;;5056927;28;20486;-75
2021/09/02 03:36:22;;;;;;;181.48;30.63;;;8.30;99.90;;;;;;5058759;28;20486;-75
2021/09/02 03:38:49;;;;;;;123.38;29.17;;;8.40;99.90;;;;;;5063654;28;20285;-76
2021/09/02 03:41:16;;;;;;;152.95;30.13;;;8.40;99.90;;;;;;5061993;28;20053;-75
2021/09/02 03:43:42;;;;;;;136.50;27.73;;;8.40;99.90;;;;;;5064333;28;20157;-76
2021/09/02 03:46:09;;;;;;;87.38;24.50;;;8.40;99.90;;;;;;5044666;28;20045;-75
2021/09/02 03:48:36;;;;;;;128.10;27.42;;;8.40;99.90;;;;;;5056027;28;20048;-75
2021/09/02 03:51:02;;;;;;;174.48;31.23;;;8.50;99.90;;;;;;5049614;28;20052;-76
2021/09/02 03:53:29;;;;;;;191.52;36.88;;;8.60;99.90;;;;;;5044699;28;20088;-75
2021/09/02 03:55:56;;;;;;;261.20;39.17;;;8.60;99.90;;;;;;5049871;28;20095;-75
2021/09/02 03:58:22;;;;;;;249.68;38.97;;;8.50;99.90;;;;;;5062276;28;20090;-75
2021/09/02 04:00:49;;;;;;;275.90;41.53;;;8.40;99.90;;;;;;5028949;28;20472;-75
2021/09/02 04:03:16;;;;;;;255.60;41.00;;;8.30;99.90;;;;;;5063100;28;20056;-75
2021/09/02 04:05:43;;;;;;;353.45;47.60;;;8.20;99.90;;;;;;5061043;28;20136;-76
2021/09/02 04:08:10;;;;;;;351.67;49.25;;;8.30;99.90;;;;;;5061980;28;20078;-76
2021/09/02 04:10:36;;;;;;;241.77;38.40;;;8.40;99.90;;;;;;5061674;28;20044;-76
2021/09/02 04:13:03;;;;;;;288.63;42.00;;;8.50;99.90;;;;;;5062039;28;20483;-75
2021/09/02 04:15:30;;;;;;;203.35;34.72;;;8.70;99.90;;;;;;5062912;28;20355;-75
2021/09/02 04:17:57;;;;;;;199.85;34.70;;;8.50;99.90;;;;;;5042302;28;20521;-75
2021/09/02 04:20:28;;;;;;;198.02;34.10;;;8.50;99.90;;;;;;5049606;28;20131;-75
2021/09/02 04:22:54;;;;;;;214.60;37.78;;;8.40;99.90;;;;;;5040845;28;20391;-75
2021/09/02 04:25:21;;;;;;;193.98;36.65;;;8.50;99.90;;;;;;5053462;28;20048;-75
2021/09/02 04:27:48;;;;;;;288.83;40.83;;;8.40;99.90;;;;;;5063034;28;20435;-75
2021/09/02 04:30:15;;;;;;;245.10;38.75;;;8.60;99.90;;;;;;5061374;28;20104;-75
2021/09/02 04:32:42;;;;;;;281.08;42.20;;;8.60;99.90;;;;;;5062728;28;20492;-76
2021/09/02 04:35:11;;;;;;;227.52;36.70;;;8.60;99.90;;;;;;5046468;28;20063;-75
2021/09/02 04:37:45;;;;;;;248.02;40.53;;;8.50;99.90;;;;;;5052223;28;20059;-76
2021/09/02 04:40:14;;;;;;;341.42;43.65;;;8.50;99.90;;;;;;5062846;28;20056;-75
2021/09/02 04:42:41;;;;;;;304.08;41.80;;;8.50;99.90;;;;;;5063255;28;20445;-75
2021/09/02 04:45:09;;;;;;;310.60;42.35;;;8.40;99.90;;;;;;5061214;28;20048;-75
2021/09/02 04:47:36;;;;;;;276.40;37.75;;;8.30;99.90;;;;;;5060441;28;20052;-76
2021/09/02 04:50:06;;;;;;;290.75;41.58;;;8.20;99.90;;;;;;5033965;28;20381;-74
2021/09/02 04:52:33;;;;;;;316.05;42.80;;;8.20;99.90;;;;;;5025160;28;20049;-76
2021/09/02 04:55:00;;;;;;;395.05;50.80;;;8.20;99.90;;;;;;5040692;28;20106;-76
2021/09/02 04:57:27;;;;;;;308.88;45.33;;;8.30;99.90;;;;;;5027853;28;20043;-76
2021/09/02 04:59:54;;;;;;;311.20;43.05;;;8.30;99.90;;;;;;5063486;28;20057;-76
2021/09/02 05:02:21;;;;;;;294.23;44.65;;;8.40;99.90;;;;;;5043120;28;20079;-76
2021/09/02 05:04:48;;;;;;;275.95;42.55;;;8.40;99.90;;;;;;5060065;28;20722;-76
2021/09/02 05:07:17;;;;;;;220.20;38.17;;;8.50;99.90;;;;;;5043794;28;20040;-76
2021/09/02 05:09:44;;;;;;;200.43;39.08;;;8.50;99.90;;;;;;5065749;28;20108;-76
2021/09/02 05:12:15;;;;;;;255.43;46.45;;;8.50;99.90;;;;;;5048479;28;20040;-75
2021/09/02 05:14:42;;;;;;;173.02;37.10;;;8.80;99.90;;;;;;5032856;28;20060;-75
2021/09/02 05:17:09;;;;;;;139.55;33.97;;;8.70;99.90;;;;;;5065870;28;20428;-76
2021/09/02 05:19:36;;;;;;;139.57;39.08;;;8.80;99.90;;;;;;5060392;28;20120;-76
2021/09/02 05:22:05;;;;;;;158.77;35.95;;;8.80;99.90;;;;;;5065914;28;20056;-76
2021/09/02 05:24:32;;;;;;;136.88;33.13;;;8.90;99.90;;;;;;5064717;28;20551;-76
2021/09/02 05:27:04;;;;;;;107.43;30.80;;;9.00;99.90;;;;;;5065616;28;20049;-76
2021/09/02 05:29:31;;;;;;;109.63;30.63;;;9.10;99.90;;;;;;5064954;28;20565;-76
2021/09/02 05:31:58;;;;;;;114.47;32.75;;;9.10;99.90;;;;;;5048049;28;20123;-76
2021/09/02 05:34:24;;;;;;;101.00;28.80;;;9.10;99.90;;;;;;5058258;28;20056;-76
2021/09/02 05:36:51;;;;;;;89.32;26.95;;;9.20;99.90;;;;;;5062295;28;20098;-76
2021/09/02 05:39:18;;;;;;;81.90;28.98;;;9.20;99.90;;;;;;5065427;28;20080;-75
2021/09/02 05:41:48;;;;;;;94.32;29.05;;;9.20;99.90;;;;;;5064265;28;20497;-75
2021/09/02 05:44:15;;;;;;;74.97;26.08;;;9.20;99.90;;;;;;5066212;28;20053;-75
2021/09/02 05:46:42;;;;;;;75.50;26.52;;;9.30;99.90;;;;;;5063890;28;20384;-76
2021/09/02 05:49:08;;;;;;;65.30;24.60;;;9.30;99.90;;;;;;5057581;28;20125;-76
2021/09/02 05:51:35;;;;;;;78.25;26.65;;;9.40;99.90;;;;;;5077501;28;20718;-76
2021/09/02 05:54:02;;;;;;;67.72;24.73;;;9.50;99.90;;;;;;5064148;28;20060;-75
2021/09/02 05:56:29;;;;;;;67.40;24.80;;;9.50;99.90;;;;;;5064112;28;20127;-76
2021/09/02 05:58:55;;;;;;;67.95;26.73;;;9.70;99.90;;;;;;5066235;28;20094;-76
2021/09/02 06:01:22;;;;;;;70.82;26.80;;;9.90;99.90;;;;;;5064756;28;20450;-76
2021/09/02 06:03:49;;;;;;;80.65;28.23;;;10.10;99.90;;;;;;5044121;28;20061;-76
2021/09/02 06:06:16;;;;;;;80.00;30.05;;;10.20;99.90;;;;;;5046940;28;20048;-75
2021/09/02 06:08:43;;;;;;;106.95;34.55;;;10.30;99.90;;;;;;5053913;28;20065;-76
2021/09/02 06:11:10;;;;;;;96.80;33.08;;;10.10;99.90;;;;;;5064593;28;20048;-75
2021/09/02 06:13:36;;;;;;;111.82;34.38;;;10.10;99.90;;;;;;5064692;28;20225;-76
2021/09/02 06:16:03;;;;;;;96.95;32.78;;;10.20;99.90;;;;;;5064887;28;20049;-76
2021/09/02 06:18:30;;;;;;;92.97;31.30;;;10.40;99.90;;;;;;5058470;28;20073;-76
2021/09/02 06:20:57;;;;;;;91.60;30.05;;;10.60;99.90;;;;;;5033527;28;20278;-76
2021/09/02 06:23:24;;;;;;;85.68;29.60;;;10.60;99.90;;;;;;5044743;28;20460;-75
2021/09/02 06:25:51;;;;;;;95.88;29.13;;;10.60;99.90;;;;;;5045756;28;20095;-76
2021/09/02 06:28:17;;;;;;;81.32;28.88;;;10.70;99.90;;;;;;5045996;28;20085;-76
2021/09/02 06:30:44;;;;;;;74.97;28.02;;;10.80;99.90;;;;;;5065658;28;20102;-76
2021/09/02 06:33:11;;;;;;;93.15;29.02;;;10.90;99.90;;;;;;5047189;28;20040;-76
2021/09/02 06:35:38;;;;;;;92.45;30.27;;;11.00;99.90;;;;;;5043995;28;20048;-76
2021/09/02 06:38:06;;;;;;;97.68;30.48;;;10.90;99.90;;;;;;5065915;28;20056;-76
2021/09/02 06:40:33;;;;;;;102.05;31.90;;;10.90;99.90;;;;;;5065732;28;20075;-76
2021/09/02 06:43:00;;;;;;;106.60;29.02;;;11.00;99.90;;;;;;5064425;28;20061;-76
2021/09/02 06:45:26;;;;;;;85.63;28.52;;;11.20;99.90;;;;;;5047529;28;20053;-76
2021/09/02 06:47:54;;;;;;;92.47;29.73;;;11.30;99.90;;;;;;5063820;28;20056;-76
2021/09/02 06:50:21;;;;;;;89.07;30.50;;;11.40;99.90;;;;;;5059960;28;20083;-76
2021/09/02 06:52:47;;;;;;;106.05;32.97;;;11.40;99.90;;;;;;5058454;28;20535;-76
2021/09/02 06:55:14;;;;;;;115.00;35.15;;;11.60;99.90;;;;;;5046964;28;20327;-76
2021/09/02 06:57:41;;;;;;;99.68;32.50;;;11.70;99.90;;;;;;5064685;28;20070;-76
2021/09/02 07:00:09;;;;;;;92.40;33.75;;;11.90;99.90;;;;;;5045033;28;20094;-75
2021/09/02 07:02:36;;;;;;;94.93;37.78;;;12.20;99.90;;;;;;5051786;28;20052;-75
2021/09/02 07:05:05;;;;;;;86.55;33.08;;;12.50;99.90;;;;;;5059514;28;20585;-75
2021/09/02 07:07:33;;;;;;;80.80;33.28;;;12.70;99.90;;;;;;5055184;28;20087;-76
2021/09/02 07:10:01;;;;;;;82.63;34.38;;;12.90;99.90;;;;;;5062372;28;20470;-75
2021/09/02 07:12:27;;;;;;;77.97;33.55;;;12.80;99.90;;;;;;5061561;28;20449;-75
2021/09/02 07:14:56;;;;;;;71.80;32.75;;;12.90;99.90;;;;;;5046666;28;20049;-75
2021/09/02 07:17:22;;;;;;;71.63;32.35;;;13.00;99.90;;;;;;5063108;28;20041;-75
2021/09/02 07:19:49;;;;;;;82.30;35.70;;;13.10;99.90;;;;;;5055424;28;20618;-75
2021/09/02 07:22:16;;;;;;;82.95;34.33;;;13.10;99.90;;;;;;5062493;28;20049;-75
2021/09/02 07:24:43;;;;;;;69.63;31.50;;;13.30;99.90;;;;;;5062427;28;20063;-75
2021/09/02 07:27:10;;;;;;;64.00;30.05;;;13.30;99.90;;;;;;5062560;28;20068;-75
2021/09/02 07:29:37;;;;;;;71.22;32.08;;;13.20;99.90;;;;;;5056971;28;20058;-75
2021/09/02 07:32:04;;;;;;;65.65;29.95;;;13.20;99.90;;;;;;5057266;28;20056;-75
2021/09/02 07:34:30;;;;;;;55.53;28.17;;;13.20;99.90;;;;;;5061400;28;20131;-75
2021/09/02 07:36:58;;;;;;;63.95;29.55;;;13.10;99.90;;;;;;5046109;28;20098;-75
2021/09/02 07:39:24;;;;;;;64.97;31.45;;;13.20;99.90;;;;;;5061757;28;20519;-75
2021/09/02 07:41:51;;;;;;;63.38;29.90;;;13.30;99.90;;;;;;5063003;28;20074;-75
2021/09/02 07:44:18;;;;;;;44.90;26.08;;;13.50;99.90;;;;;;5060216;28;20311;-75
2021/09/02 07:46:45;;;;;;;56.20;28.80;;;13.50;99.90;;;;;;5053388;28;20440;-77
2021/09/02 07:49:12;;;;;;;55.00;27.70;;;13.40;99.90;;;;;;5052497;28;20444;-75
2021/09/02 07:51:41;;;;;;;53.65;29.15;;;13.40;99.90;;;;;;5057598;28;20057;-75
2021/09/02 07:54:07;;;;;;;57.72;28.83;;;13.40;99.90;;;;;;5056175;28;20334;-77
2021/09/02 07:56:34;;;;;;;53.60;29.05;;;13.40;99.90;;;;;;5040862;28;20118;-75
2021/09/02 07:59:05;;;;;;;52.97;28.70;;;13.50;99.90;;;;;;5117380;22;20470;-77
2021/09/02 08:01:32;;;;;;;51.80;28.77;;;13.60;99.90;;;;;;5062888;28;20450;-77
2021/09/02 08:03:59;;;;;;;50.17;27.50;;;13.60;99.90;;;;;;5063012;28;20524;-77
2021/09/02 08:06:26;;;;;;;53.92;27.40;;;13.60;99.90;;;;;;5096054;28;20048;-76
2021/09/02 08:08:53;;;;;;;51.75;27.05;;;13.80;99.90;;;;;;5063075;28;20048;-77
2021/09/02 08:11:20;;;;;;;55.78;28.15;;;13.80;99.90;;;;;;5063390;28;20044;-76
2021/09/02 08:13:46;;;;;;;45.60;25.60;;;13.60;99.90;;;;;;5063731;28;20075;-77
2021/09/02 08:16:13;;;;;;;40.95;23.35;;;13.80;99.90;;;;;;5083015;28;20496;-76
2021/09/02 08:18:40;;;;;;;48.40;24.98;;;13.80;99.90;;;;;;5065088;28;20123;-77
2021/09/02 08:21:07;;;;;;;48.97;26.52;;;13.70;99.90;;;;;;5063973;28;20040;-77
2021/09/02 08:23:33;;;;;;;47.38;27.33;;;13.80;99.90;;;;;;5062969;28;20089;-77
2021/09/02 08:26:00;;;;;;;52.13;26.58;;;14.00;99.90;;;;;;5063924;28;20516;-76
2021/09/02 08:28:27;;;;;;;47.50;24.98;;;14.00;99.90;;;;;;5082772;28;20087;-76
2021/09/02 08:30:54;;;;;;;46.13;26.02;;;14.10;99.90;;;;;;5082139;28;20101;-77
2021/09/02 08:33:23;;;;;;;50.00;27.52;;;14.30;99.90;;;;;;5082855;28;20422;-77
2021/09/02 08:35:51;;;;;;;48.53;26.05;;;14.20;99.90;;;;;;5064145;28;20535;-77
2021/09/02 08:38:18;;;;;;;46.38;26.23;;;14.20;99.90;;;;;;5084602;28;20067;-75
2021/09/02 08:40:45;;;;;;;44.10;26.15;;;14.40;99.90;;;;;;5100653;27;20085;-76
2021/09/02 08:43:13;;;;;;;40.03;23.02;;;14.40;99.90;;;;;;5064347;28;20102;-76
2021/09/02 08:45:59;;;;;;;41.88;23.50;;;14.30;99.90;;;;;;5078130;28;20420;-76
2021/09/02 08:48:27;;;;;;;44.65;22.90;;;14.20;99.90;;;;;;5068612;28;20298;-75
2021/09/02 08:50:54;;;;;;;43.47;23.88;;;14.00;99.90;;;;;;5064073;28;20048;-76
2021/09/02 08:53:22;;;;;;;43.92;23.90;;;14.10;99.90;;;;;;5064051;28;20568;-76
2021/09/02 08:55:49;;;;;;;42.20;23.63;;;14.20;99.90;;;;;;5047414;28;20048;-77
2021/09/02 08:58:16;;;;;;;43.85;24.70;;;14.40;99.90;;;;;;5063678;28;20064;-76
2021/09/02 09:00:43;;;;;;;40.30;22.55;;;14.40;99.90;;;;;;5082163;28;20078;-76
2021/09/02 09:03:09;;;;;;;40.60;23.10;;;14.50;99.90;;;;;;5063966;28;20048;-76
2021/09/02 09:05:37;;;;;;;38.95;22.45;;;14.40;99.90;;;;;;5055620;28;20547;-76
2021/09/02 09:08:10;;;;;;;38.30;24.10;;;14.60;99.90;;;;;;5063752;28;20051;-77
2021/09/02 09:10:39;;;;;;;41.95;23.23;;;14.70;99.90;;;;;;5081641;28;20048;-77
2021/09/02 09:13:10;;;;;;;37.45;21.65;;;14.90;99.90;;;;;;5060758;28;20151;-77
2021/09/02 09:15:40;;;;;;;44.25;23.10;;;15.00;99.90;;;;;;5082646;28;20044;-76
2021/09/02 09:18:22;;;;;;;40.45;22.23;;;14.80;99.90;;;;;;5081909;28;20418;-76
2021/09/02 09:21:18;;;;;;;37.13;20.67;;;15.00;99.90;;;;;;5046843;28;20063;-76
2021/09/02 09:23:58;;;;;;;;;;;15.10;99.90;;;;;;5062037;28;20047;-76
2021/09/02 09:26:26;;;;;;;41.08;21.63;;;15.20;99.90;;;;;;5081272;28;19924;-76
2021/09/02 09:28:58;;;;;;;34.10;20.00;;;15.30;99.90;;;;;;5062142;28;20060;-76
2021/09/02 09:31:33;;;;;;;36.92;19.52;;;15.20;99.90;;;;;;5063720;28;20373;-76
2021/09/02 09:34:06;;;;;;;35.47;20.02;;;15.40;99.90;;;;;;5079984;28;20098;-76
2021/09/02 09:36:35;;;;;;;35.20;21.00;;;15.60;99.90;;;;;;5046820;28;20051;-76
2021/09/02 09:39:05;;;;;;;32.50;18.60;;;15.60;99.90;;;;;;5083053;28;20080;-76
2021/09/02 09:41:38;;;;;;;32.10;19.42;;;15.70;99.90;;;;;;5063030;28;20306;-76
2021/09/02 09:44:24;;;;;;;38.72;19.45;;;15.60;99.90;;;;;;5078683;28;20117;-76
2021/09/02 09:47:10;;;;;;;33.45;19.00;;;15.60;99.90;;;;;;5047091;28;20055;-76
2021/09/02 09:49:51;;;;;;;48.78;23.85;;;15.80;99.90;;;;;;5063670;28;20040;-76
2021/09/02 09:52:26;;;;;;;30.05;19.67;;;16.20;99.90;;;;;;5030233;28;20093;-76
2021/09/02 09:54:59;;;;;;;32.53;20.60;;;16.30;99.90;;;;;;5065476;28;20048;-76
2021/09/02 09:57:30;;;;;;;27.85;19.40;;;16.40;99.90;;;;;;5084790;28;20048;-76
2021/09/02 10:00:01;;;;;;;31.05;19.35;;;16.40;99.90;;;;;;5050749;28;20043;-76
2021/09/02 10:02:39;;;;;;;31.20;19.85;;;16.30;99.90;;;;;;5067747;28;20048;-76
2021/09/02 10:05:08;;;;;;;29.95;20.13;;;16.50;99.90;;;;;;5064118;28;20040;-76
2021/09/02 10:07:36;;;;;;;31.38;21.40;;;16.20;99.90;;;;;;5065092;28;20109;-76
2021/09/02 10:10:05;;;;;;;30.10;20.75;;;15.90;99.90;;;;;;5085753;28;20048;-73
2021/09/02 10:12:36;;;;;;;30.35;20.35;;;15.60;99.90;;;;;;5075585;28;20729;-75
2021/09/02 10:15:09;;;;;;;33.15;20.05;;;15.70;99.90;;;;;;5051724;28;20283;-77
2021/09/02 10:17:37;;;;;;;30.42;20.75;;;15.80;99.90;;;;;;5066722;28;20056;-76
2021/09/02 10:20:17;;;;;;;37.50;23.52;;;16.00;99.90;;;;;;5033628;28;20097;-75
2021/09/02 10:22:45;;;;;;;33.35;20.02;;;15.70;99.90;;;;;;5084617;28;20356;-77
2021/09/02 10:25:30;;;;;;;33.67;20.35;;;15.50;99.90;;;;;;5072373;28;20076;-76
2021/09/02 10:28:10;;;;;;;34.47;18.55;;;15.50;99.90;;;;;;5084886;28;20052;-76
2021/09/02 10:30:46;;;;;;;36.88;21.13;;;15.80;99.90;;;;;;5072036;28;20048;-76
2021/09/02 10:33:48;;;;;;;32.72;20.67;;;16.10;99.90;;;;;;5084102;28;20151;-77
2021/09/02 10:36:15;;;;;;;33.42;19.52;;;16.10;99.90;;;;;;4988560;28;20112;-77
2021/09/02 10:38:50;;;;;;;34.05;20.45;;;16.50;99.90;;;;;;5065103;28;20067;-77
2021/09/02 10:41:37;;;;;;;35.42;21.45;;;16.20;99.90;;;;;;5048952;28;20127;-77
2021/09/02 10:44:09;;;;;;;33.03;20.45;;;16.10;99.90;;;;;;5084887;28;20507;-77
2021/09/02 10:46:38;;;;;;;34.53;20.33;;;16.30;99.90;;;;;;5050463;28;20486;-77
2021/09/02 10:49:24;;;;;;;32.45;19.83;;;15.90;99.90;;;;;;5066849;28;20157;-77
2021/09/02 10:51:56;;;;;;;33.95;20.05;;;16.10;99.90;;;;;;5081860;28;20125;-76
2021/09/02 10:54:49;;;;;;;32.35;20.42;;;16.20;99.90;;;;;;5084707;28;20087;-76
2021/09/02 10:57:16;;;;;;;33.88;20.27;;;16.10;99.90;;;;;;5046189;28;20086;-75
2021/09/02 10:59:50;;;;;;;28.73;19.05;;;16.40;99.90;;;;;;5066264;28;20048;-77
2021/09/02 11:02:17;;;;;;;32.22;18.17;;;16.90;99.90;;;;;;5083592;28;20048;-77
2021/09/02 11:04:46;;;;;;;28.33;18.65;;;17.40;99.90;;;;;;5039593;28;20423;-75
2021/09/02 11:07:13;;;;;;;24.33;17.90;;;17.70;99.90;;;;;;5081892;28;20511;-77
2021/09/02 11:09:42;;;;;;;26.40;20.35;;;18.10;99.90;;;;;;5065494;28;20047;-77
2021/09/02 11:12:11;;;;;;;31.00;19.17;;;17.70;99.90;;;;;;5052333;28;20097;-76
2021/09/02 11:14:40;;;;;;;26.67;19.00;;;17.20;99.90;;;;;;5071186;28;20482;-76
2021/09/02 11:17:08;;;;;;;27.95;20.23;;;17.20;99.90;;;;;;5050020;28;20104;-77
2021/09/02 11:19:41;;;;;;;23.67;19.48;;;17.10;99.90;;;;;;5079664;28;20052;-76
2021/09/02 11:22:09;;;;;;;28.88;18.95;;;17.40;99.90;;;;;;5065447;28;20090;-77
2021/09/02 11:24:45;;;;;;;28.00;20.63;;;17.60;99.90;;;;;;5084806;28;20490;-76
2021/09/02 11:27:26;;;;;;;24.15;19.42;;;17.90;99.90;;;;;;5066047;28;20080;-77
2021/09/02 11:29:53;;;;;;;28.52;19.50;;;17.90;99.90;;;;;;5066805;28;20445;-77
2021/09/02 11:32:24;;;;;;;27.52;18.58;;;18.00;99.90;;;;;;5065960;28;20060;-76
2021/09/02 11:35:00;;;;;;;25.90;18.83;;;18.00;99.90;;;;;;5066620;28;20141;-77
2021/09/02 11:37:36;;;;;;;28.15;18.27;;;17.60;99.90;;;;;;5068988;28;20540;-74
2021/09/02 11:40:04;;;;;;;23.65;17.58;;;17.90;99.90;;;;;;5080736;28;20461;-75
2021/09/02 11:42:32;;;;;;;26.20;17.63;;;18.40;99.90;;;;;;5067440;28;20463;-75
2021/09/02 11:45:00;;;;;;;27.50;19.38;;;18.20;99.90;;;;;;5065481;28;20626;-73
2021/09/02 11:47:35;;;;;;;24.08;18.98;;;18.00;99.90;;;;;;5064679;28;20060;-73
2021/09/02 11:50:04;;;;;;;24.73;17.95;;;17.80;99.90;;;;;;5083332;28;20079;-73
2021/09/02 11:52:44;;;;;;;22.30;18.25;;;17.70;99.90;;;;;;5084414;28;20454;-73
2021/09/02 11:55:30;;;;;;;28.17;17.77;;;17.90;99.90;;;;;;5084490;28;20052;-73
2021/09/02 11:58:00;;;;;;;30.15;18.23;;;18.10;99.90;;;;;;5083316;28;20060;-73
2021/09/02 12:00:28;;;;;;;26.45;18.45;;;18.20;99.90;;;;;;5065801;28;20577;-73
2021/09/02 12:02:57;;;;;;;22.55;17.30;;;18.40;99.90;;;;;;5083418;28;20475;-73
2021/09/02 12:05:39;;;;;;;20.48;17.42;;;18.70;99.90;;;;;;5065431;28;20516;-75
2021/09/02 12:08:08;;;;;;;25.63;19.10;;;19.10;99.90;;;;;;5065813;28;20047;-76
2021/09/02 12:10:37;;;;;;;26.73;18.30;;;18.40;99.90;;;;;;5061053;28;20521;-73
2021/09/02 12:13:32;;;;;;;26.17;17.75;;;18.10;99.90;;;;;;5083916;28;20119;-73
2021/09/02 12:16:08;;;;;;;24.42;17.55;;;18.10;99.90;;;;;;5083082;28;20079;-73
2021/09/02 12:18:40;;;;;;;21.58;16.35;;;18.20;99.90;;;;;;5064406;28;20048;-75
2021/09/02 12:21:08;;;;;;;21.75;17.65;;;18.30;99.90;;;;;;5065488;28;20055;-75
2021/09/02 12:23:52;;;;;;;21.98;17.30;;;18.40;99.90;;;;;;5083924;28;20052;-73
2021/09/02 12:26:20;;;;;;;;;;;18.50;99.90;;;;;;5066364;28;20048;-73
2021/09/02 12:28:49;;;;;;;23.90;17.13;;;18.70;99.90;;;;;;5049089;28;19932;-72
2021/09/02 12:31:24;;;;;;;25.42;17.60;;;18.60;99.90;;;;;;5083385;28;20481;-73
2021/09/02 12:34:08;;;;;;;23.90;17.33;;;18.60;99.90;;;;;;5065809;28;20119;-73
2021/09/02 12:36:42;;;;;;;27.02;18.75;;;18.70;99.90;;;;;;5083376;28;20082;-72
2021/09/02 12:39:14;;;;;;;21.25;18.10;;;18.90;99.90;;;;;;5083271;28;20048;-72
2021/09/02 12:41:46;;;;;;;19.45;17.35;;;19.10;99.90;;;;;;5064965;28;20059;-73